No requiere especial atencion con respecto al clima.   -   No hay Alarmas

Nearby METAR Reports

 

LELL - Sabadell, Spain
Distance from station: E 19km
Actualización: 13/05/2021 08:00
Despejado
Despejado
 Viento del OSO
Viento: OSO 13 km/h
Temperatura: 13°C
Rocío: 6°C
Humedad: 63%
Barómetro: 1014 hPa
Resumen: Despejado
Visibility: greater than 10 km
2021/05/13 06:00 LELL 130600Z 25007KT 220V290 CAVOK 13/06 Q1014
LEBL - Barcelona Airpor, Spain
Distance from station: SSE 30km
Actualización: 13/05/2021 08:00
Few Clouds
Few Clouds
 Viento del NNO
Viento: NNO 15 km/h
Temperatura: 15°C
Rocío: 5°C
Humedad: 51%
Barómetro: 1014 hPa
Clouds: Few Clouds
Visibility: 10 km
Cloud details: Few Clouds 762 m
2021/05/13 06:00 LEBL 130600Z 33008KT 9999 FEW025 15/05 Q1014 NOSIG
 
LERS - Reus (civ/Mil), Spain
Distance from station: SO 71km
Actualización: 13/05/2021 08:00
Few Clouds
Few Clouds
 Viento del OSO
Viento: OSO 28 km/h
Temperatura: 13°C
Rocío: 5°C
Humedad: 59%
Barómetro: 1015 hPa
Clouds: Few Clouds
Visibility: 10 km
Cloud details: Few Clouds 1219 m
2021/05/13 06:00 LERS 130600Z 25015KT 9999 FEW040 13/05 Q1015
LEGE - Gerona/Costa Bra, Spain
Distance from station: ENE 86km
Actualización: 13/05/2021 08:00
Muy nuboso
Muy nuboso
 Viento del N
Viento: N 6 km/h
Temperatura: 11°C
Rocío: 8°C
Humedad: 82%
Barómetro: 1014 hPa
Clouds: Muy nuboso
Visibility: 10 km
Cloud details: Muy nuboso 610 m
Muy nuboso 1158 m
2021/05/13 06:00 LEGE 130600Z 01003KT 320V050 9999 BKN020 BKN038 11/08 Q1014
 
LESU - Pirineus/La Seu, Spain
Distance from station: NNO 101km
Actualización: 10/05/2021 18:30
NOT Current
Parcialmente nuboso
Parcialmente nuboso
 Viento del S
Viento: S 13 km/h
Temperatura: 17°C
Rocío: 5°C
Humedad: 45%
Barómetro: 1007 hPa
Clouds: Parcialmente nuboso
Visibility: 10 km
Cloud details: Few Clouds 1524 m
Parcialmente nuboso 2134 m
2021/05/10 16:30 LESU 101630Z 19007KT 150V220 9999 FEW050TCU SCT070 17/05 Q1007
LEDA - Lleida/Alguaire, Spain
Distance from station: ONO 114km
Actualización: 13/05/2021 08:00
Despejado
Despejado
 Viento del OSO
Viento: OSO 15 km/h
Temperatura: 9°C
Wind Chill: 7°C
Rocío: 6°C
Humedad: 82%
Barómetro: 1015 hPa
Resumen: Despejado
Visibility: greater than 10 km
2021/05/13 06:00 LEDA 130600Z 25008KT CAVOK 09/06 Q1015